sensor_id;sensor_type;location;lat;lon;timestamp;P1;durP1;ratioP1;P2;durP2;ratioP2
26718;SDS011;14326;50.794;6.060;2023-07-13T00:01:05;5.95;;;1.60;;
26718;SDS011;14326;50.794;6.060;2023-07-13T00:03:59;8.07;;;1.50;;
26718;SDS011;14326;50.794;6.060;2023-07-13T00:09:48;4.00;;;0.90;;
26718;SDS011;14326;50.794;6.060;2023-07-13T00:12:39;13.60;;;2.20;;
26718;SDS011;14326;50.794;6.060;2023-07-13T00:15:32;10.00;;;1.65;;
26718;SDS011;14326;50.794;6.060;2023-07-13T00:18:25;12.90;;;1.98;;
26718;SDS011;14326;50.794;6.060;2023-07-13T00:21:00;10.73;;;2.20;;
26718;SDS011;14326;50.794;6.060;2023-07-13T00:27:16;8.23;;;1.65;;
26718;SDS011;14326;50.794;6.060;2023-07-13T00:30:10;8.05;;;1.55;;
26718;SDS011;14326;50.794;6.060;2023-07-13T00:32:53;12.27;;;1.85;;
26718;SDS011;14326;50.794;6.060;2023-07-13T00:38:26;10.48;;;1.67;;
26718;SDS011;14326;50.794;6.060;2023-07-13T00:41:24;8.55;;;1.90;;
26718;SDS011;14326;50.794;6.060;2023-07-13T00:44:04;10.15;;;1.70;;
26718;SDS011;14326;50.794;6.060;2023-07-13T00:46:42;11.77;;;2.35;;
26718;SDS011;14326;50.794;6.060;2023-07-13T00:49:33;10.93;;;1.95;;
26718;SDS011;14326;50.794;6.060;2023-07-13T00:52:19;8.98;;;1.70;;
26718;SDS011;14326;50.794;6.060;2023-07-13T00:55:07;8.75;;;1.77;;
26718;SDS011;14326;50.794;6.060;2023-07-13T00:58:00;10.93;;;1.63;;
26718;SDS011;14326;50.794;6.060;2023-07-13T01:00:55;7.20;;;1.38;;
26718;SDS011;14326;50.794;6.060;2023-07-13T01:04:01;9.27;;;2.03;;
26718;SDS011;14326;50.794;6.060;2023-07-13T01:06:50;13.88;;;1.92;;
26718;SDS011;14326;50.794;6.060;2023-07-13T01:09:58;7.93;;;1.70;;
26718;SDS011;14326;50.794;6.060;2023-07-13T01:12:52;9.68;;;1.95;;
26718;SDS011;14326;50.794;6.060;2023-07-13T01:15:43;9.23;;;1.63;;
26718;SDS011;14326;50.794;6.060;2023-07-13T01:18:29;7.72;;;2.03;;
26718;SDS011;14326;50.794;6.060;2023-07-13T01:21:49;9.68;;;1.88;;
26718;SDS011;14326;50.794;6.060;2023-07-13T01:27:31;11.65;;;1.90;;
26718;SDS011;14326;50.794;6.060;2023-07-13T01:33:05;10.88;;;1.88;;
26718;SDS011;14326;50.794;6.060;2023-07-13T01:35:43;9.32;;;2.05;;
26718;SDS011;14326;50.794;6.060;2023-07-13T01:38:34;9.02;;;1.60;;
26718;SDS011;14326;50.794;6.060;2023-07-13T01:41:06;9.45;;;1.67;;
26718;SDS011;14326;50.794;6.060;2023-07-13T01:43:55;8.68;;;1.70;;
26718;SDS011;14326;50.794;6.060;2023-07-13T01:46:41;9.63;;;1.85;;
26718;SDS011;14326;50.794;6.060;2023-07-13T01:49:38;5.40;;;1.63;;
26718;SDS011;14326;50.794;6.060;2023-07-13T01:52:23;8.48;;;1.77;;
26718;SDS011;14326;50.794;6.060;2023-07-13T01:55:15;8.35;;;1.75;;
26718;SDS011;14326;50.794;6.060;2023-07-13T01:58:16;12.85;;;1.75;;
26718;SDS011;14326;50.794;6.060;2023-07-13T02:02:18;12.15;;;2.05;;
26718;SDS011;14326;50.794;6.060;2023-07-13T02:04:00;6.80;;;1.73;;
26718;SDS011;14326;50.794;6.060;2023-07-13T02:06:43;13.82;;;1.88;;
26718;SDS011;14326;50.794;6.060;2023-07-13T02:09:32;11.90;;;1.92;;
26718;SDS011;14326;50.794;6.060;2023-07-13T02:12:03;13.80;;;1.90;;
26718;SDS011;14326;50.794;6.060;2023-07-13T02:14:49;9.98;;;1.90;;
26718;SDS011;14326;50.794;6.060;2023-07-13T02:20:21;13.18;;;2.00;;
26718;SDS011;14326;50.794;6.060;2023-07-13T02:23:05;9.05;;;1.92;;
26718;SDS011;14326;50.794;6.060;2023-07-13T02:25:55;11.43;;;2.15;;
26718;SDS011;14326;50.794;6.060;2023-07-13T02:28:56;13.03;;;1.73;;
26718;SDS011;14326;50.794;6.060;2023-07-13T02:31:56;9.10;;;1.90;;
26718;SDS011;14326;50.794;6.060;2023-07-13T02:34:34;11.38;;;1.88;;
26718;SDS011;14326;50.794;6.060;2023-07-13T02:37:22;11.07;;;2.00;;
26718;SDS011;14326;50.794;6.060;2023-07-13T02:46:17;10.23;;;2.70;;
26718;SDS011;14326;50.794;6.060;2023-07-13T02:48:55;10.07;;;1.80;;
26718;SDS011;14326;50.794;6.060;2023-07-13T02:51:48;9.57;;;1.90;;
26718;SDS011;14326;50.794;6.060;2023-07-13T02:54:38;7.82;;;1.80;;
26718;SDS011;14326;50.794;6.060;2023-07-13T02:57:40;8.65;;;1.83;;
26718;SDS011;14326;50.794;6.060;2023-07-13T03:00:56;8.50;;;1.50;;
26718;SDS011;14326;50.794;6.060;2023-07-13T03:03:44;9.20;;;2.30;;
26718;SDS011;14326;50.794;6.060;2023-07-13T03:06:13;11.75;;;1.88;;
26718;SDS011;14326;50.794;6.060;2023-07-13T03:09:00;7.78;;;2.03;;
26718;SDS011;14326;50.794;6.060;2023-07-13T03:11:45;13.27;;;2.05;;
26718;SDS011;14326;50.794;6.060;2023-07-13T03:14:12;10.82;;;1.92;;
26718;SDS011;14326;50.794;6.060;2023-07-13T03:16:41;13.55;;;2.70;;
26718;SDS011;14326;50.794;6.060;2023-07-13T03:19:09;13.25;;;2.45;;
26718;SDS011;14326;50.794;6.060;2023-07-13T03:21:40;9.07;;;2.05;;
26718;SDS011;14326;50.794;6.060;2023-07-13T03:24:39;8.90;;;2.38;;
26718;SDS011;14326;50.794;6.060;2023-07-13T03:27:35;16.35;;;2.47;;
26718;SDS011;14326;50.794;6.060;2023-07-13T03:30:19;9.15;;;2.00;;
26718;SDS011;14326;50.794;6.060;2023-07-13T03:33:11;14.90;;;2.20;;
26718;SDS011;14326;50.794;6.060;2023-07-13T03:36:03;10.60;;;2.27;;
26718;SDS011;14326;50.794;6.060;2023-07-13T03:38:51;11.80;;;2.22;;
26718;SDS011;14326;50.794;6.060;2023-07-13T03:41:25;13.05;;;2.30;;
26718;SDS011;14326;50.794;6.060;2023-07-13T03:44:05;16.13;;;2.60;;
26718;SDS011;14326;50.794;6.060;2023-07-13T03:49:28;10.98;;;2.38;;
26718;SDS011;14326;50.794;6.060;2023-07-13T03:52:22;12.80;;;2.75;;
26718;SDS011;14326;50.794;6.060;2023-07-13T03:55:11;13.68;;;2.38;;
26718;SDS011;14326;50.794;6.060;2023-07-13T03:58:28;16.48;;;2.67;;
26718;SDS011;14326;50.794;6.060;2023-07-13T04:01:20;9.60;;;2.25;;
26718;SDS011;14326;50.794;6.060;2023-07-13T04:09:37;14.98;;;2.65;;
26718;SDS011;14326;50.794;6.060;2023-07-13T04:12:30;11.90;;;2.25;;
26718;SDS011;14326;50.794;6.060;2023-07-13T04:15:12;13.10;;;2.45;;
26718;SDS011;14326;50.794;6.060;2023-07-13T04:17:42;9.55;;;2.03;;
26718;SDS011;14326;50.794;6.060;2023-07-13T04:20:16;12.88;;;1.90;;
26718;SDS011;14326;50.794;6.060;2023-07-13T04:22:47;15.85;;;2.70;;
26718;SDS011;14326;50.794;6.060;2023-07-13T04:25:27;11.75;;;2.13;;
26718;SDS011;14326;50.794;6.060;2023-07-13T04:28:12;10.25;;;2.03;;
26718;SDS011;14326;50.794;6.060;2023-07-13T04:31:01;13.05;;;2.35;;
26718;SDS011;14326;50.794;6.060;2023-07-13T04:33:28;13.45;;;2.10;;
26718;SDS011;14326;50.794;6.060;2023-07-13T04:36:00;10.03;;;2.30;;
26718;SDS011;14326;50.794;6.060;2023-07-13T04:38:41;19.52;;;3.38;;
26718;SDS011;14326;50.794;6.060;2023-07-13T04:41:13;11.57;;;2.17;;
26718;SDS011;14326;50.794;6.060;2023-07-13T04:43:53;9.32;;;2.72;;
26718;SDS011;14326;50.794;6.060;2023-07-13T04:46:29;14.82;;;2.80;;
26718;SDS011;14326;50.794;6.060;2023-07-13T04:51:54;12.23;;;1.90;;
26718;SDS011;14326;50.794;6.060;2023-07-13T04:54:34;13.18;;;2.15;;
26718;SDS011;14326;50.794;6.060;2023-07-13T05:00:33;14.63;;;2.42;;
26718;SDS011;14326;50.794;6.060;2023-07-13T05:03:21;11.40;;;2.00;;
26718;SDS011;14326;50.794;6.060;2023-07-13T05:06:13;16.55;;;2.65;;
26718;SDS011;14326;50.794;6.060;2023-07-13T05:08:53;11.40;;;2.65;;
26718;SDS011;14326;50.794;6.060;2023-07-13T05:11:25;13.20;;;2.88;;
26718;SDS011;14326;50.794;6.060;2023-07-13T05:14:03;11.77;;;2.00;;
26718;SDS011;14326;50.794;6.060;2023-07-13T05:16:31;12.07;;;2.05;;
26718;SDS011;14326;50.794;6.060;2023-07-13T05:19:05;10.52;;;2.30;;
26718;SDS011;14326;50.794;6.060;2023-07-13T05:22:10;12.73;;;2.63;;
26718;SDS011;14326;50.794;6.060;2023-07-13T05:24:39;10.63;;;1.90;;
26718;SDS011;14326;50.794;6.060;2023-07-13T05:27:20;13.10;;;2.35;;
26718;SDS011;14326;50.794;6.060;2023-07-13T05:29:54;11.27;;;2.83;;
26718;SDS011;14326;50.794;6.060;2023-07-13T05:32:56;13.32;;;2.30;;
26718;SDS011;14326;50.794;6.060;2023-07-13T05:35:22;12.00;;;2.42;;
26718;SDS011;14326;50.794;6.060;2023-07-13T05:37:49;13.20;;;2.40;;
26718;SDS011;14326;50.794;6.060;2023-07-13T05:40:15;14.27;;;2.55;;
26718;SDS011;14326;50.794;6.060;2023-07-13T05:42:50;18.73;;;2.78;;
26718;SDS011;14326;50.794;6.060;2023-07-13T05:45:35;13.15;;;2.47;;
26718;SDS011;14326;50.794;6.060;2023-07-13T05:48:03;20.17;;;2.80;;
26718;SDS011;14326;50.794;6.060;2023-07-13T05:50:32;12.10;;;2.10;;
26718;SDS011;14326;50.794;6.060;2023-07-13T05:53:16;16.85;;;2.55;;
26718;SDS011;14326;50.794;6.060;2023-07-13T05:56:04;15.35;;;2.72;;
26718;SDS011;14326;50.794;6.060;2023-07-13T05:58:56;19.30;;;3.00;;
26718;SDS011;14326;50.794;6.060;2023-07-13T06:01:42;12.85;;;2.45;;
26718;SDS011;14326;50.794;6.060;2023-07-13T06:04:26;13.43;;;3.50;;
26718;SDS011;14326;50.794;6.060;2023-07-13T06:07:05;15.98;;;3.00;;
26718;SDS011;14326;50.794;6.060;2023-07-13T06:09:47;13.82;;;2.00;;
26718;SDS011;14326;50.794;6.060;2023-07-13T06:12:33;22.55;;;3.08;;
26718;SDS011;14326;50.794;6.060;2023-07-13T06:15:18;17.27;;;2.80;;
26718;SDS011;14326;50.794;6.060;2023-07-13T06:23:58;17.85;;;3.55;;
26718;SDS011;14326;50.794;6.060;2023-07-13T06:29:37;16.20;;;3.90;;
26718;SDS011;14326;50.794;6.060;2023-07-13T06:32:14;15.48;;;2.92;;
26718;SDS011;14326;50.794;6.060;2023-07-13T06:34:43;14.07;;;2.85;;
26718;SDS011;14326;50.794;6.060;2023-07-13T06:37:20;13.05;;;2.83;;
26718;SDS011;14326;50.794;6.060;2023-07-13T06:40:00;15.68;;;2.95;;
26718;SDS011;14326;50.794;6.060;2023-07-13T06:42:44;16.00;;;3.33;;
26718;SDS011;14326;50.794;6.060;2023-07-13T06:45:20;17.83;;;2.88;;
26718;SDS011;14326;50.794;6.060;2023-07-13T06:47:53;22.63;;;3.50;;
26718;SDS011;14326;50.794;6.060;2023-07-13T06:50:43;13.93;;;2.70;;
26718;SDS011;14326;50.794;6.060;2023-07-13T06:53:39;18.60;;;3.03;;
26718;SDS011;14326;50.794;6.060;2023-07-13T06:56:28;23.17;;;3.33;;
26718;SDS011;14326;50.794;6.060;2023-07-13T06:59:06;13.85;;;2.95;;
26718;SDS011;14326;50.794;6.060;2023-07-13T07:01:36;16.33;;;2.75;;
26718;SDS011;14326;50.794;6.060;2023-07-13T07:04:05;12.60;;;2.75;;
26718;SDS011;14326;50.794;6.060;2023-07-13T07:06:59;16.90;;;3.60;;
26718;SDS011;14326;50.794;6.060;2023-07-13T07:15:45;20.70;;;3.03;;
26718;SDS011;14326;50.794;6.060;2023-07-13T07:18:23;14.47;;;3.20;;
26718;SDS011;14326;50.794;6.060;2023-07-13T07:21:01;13.65;;;2.40;;
26718;SDS011;14326;50.794;6.060;2023-07-13T07:23:48;17.42;;;3.05;;
26718;SDS011;14326;50.794;6.060;2023-07-13T07:26:30;12.15;;;2.78;;
26718;SDS011;14326;50.794;6.060;2023-07-13T07:29:21;16.30;;;3.03;;
26718;SDS011;14326;50.794;6.060;2023-07-13T07:32:05;17.27;;;3.50;;
26718;SDS011;14326;50.794;6.060;2023-07-13T07:35:05;15.05;;;2.92;;
26718;SDS011;14326;50.794;6.060;2023-07-13T07:37:55;17.30;;;3.35;;
26718;SDS011;14326;50.794;6.060;2023-07-13T07:40:43;21.45;;;2.85;;
26718;SDS011;14326;50.794;6.060;2023-07-13T07:43:37;17.45;;;2.95;;
26718;SDS011;14326;50.794;6.060;2023-07-13T07:46:08;17.65;;;2.78;;
26718;SDS011;14326;50.794;6.060;2023-07-13T07:48:46;16.90;;;2.47;;
26718;SDS011;14326;50.794;6.060;2023-07-13T07:51:36;13.32;;;2.33;;
26718;SDS011;14326;50.794;6.060;2023-07-13T07:54:12;11.77;;;2.63;;
26718;SDS011;14326;50.794;6.060;2023-07-13T07:56:57;13.85;;;2.65;;
26718;SDS011;14326;50.794;6.060;2023-07-13T07:59:34;18.23;;;2.80;;
26718;SDS011;14326;50.794;6.060;2023-07-13T08:02:08;12.30;;;2.70;;
26718;SDS011;14326;50.794;6.060;2023-07-13T08:04:55;14.23;;;2.85;;
26718;SDS011;14326;50.794;6.060;2023-07-13T08:07:43;12.98;;;2.72;;
26718;SDS011;14326;50.794;6.060;2023-07-13T08:10:15;14.45;;;2.65;;
26718;SDS011;14326;50.794;6.060;2023-07-13T08:16:10;15.43;;;2.90;;
26718;SDS011;14326;50.794;6.060;2023-07-13T08:18:47;14.80;;;2.60;;
26718;SDS011;14326;50.794;6.060;2023-07-13T08:22:19;13.63;;;2.72;;
26718;SDS011;14326;50.794;6.060;2023-07-13T08:25:20;13.30;;;2.83;;
26718;SDS011;14326;50.794;6.060;2023-07-13T08:27:53;18.85;;;2.83;;
26718;SDS011;14326;50.794;6.060;2023-07-13T08:30:36;10.43;;;2.35;;
26718;SDS011;14326;50.794;6.060;2023-07-13T08:33:12;15.13;;;2.60;;
26718;SDS011;14326;50.794;6.060;2023-07-13T08:35:56;16.15;;;2.85;;
26718;SDS011;14326;50.794;6.060;2023-07-13T08:38:48;11.88;;;2.30;;
26718;SDS011;14326;50.794;6.060;2023-07-13T08:41:53;13.55;;;3.00;;
26718;SDS011;14326;50.794;6.060;2023-07-13T08:44:48;13.07;;;2.63;;
26718;SDS011;14326;50.794;6.060;2023-07-13T08:51:00;13.00;;;2.55;;
26718;SDS011;14326;50.794;6.060;2023-07-13T08:53:56;16.30;;;2.90;;
26718;SDS011;14326;50.794;6.060;2023-07-13T08:59:14;13.32;;;2.28;;
26718;SDS011;14326;50.794;6.060;2023-07-13T09:05:00;8.75;;;1.90;;
26718;SDS011;14326;50.794;6.060;2023-07-13T09:07:44;13.93;;;2.25;;
26718;SDS011;14326;50.794;6.060;2023-07-13T09:10:53;10.93;;;2.17;;
26718;SDS011;14326;50.794;6.060;2023-07-13T09:13:53;16.20;;;2.72;;
26718;SDS011;14326;50.794;6.060;2023-07-13T09:16:41;11.40;;;2.22;;
26718;SDS011;14326;50.794;6.060;2023-07-13T09:19:15;13.30;;;3.08;;
26718;SDS011;14326;50.794;6.060;2023-07-13T09:22:10;17.95;;;2.88;;
26718;SDS011;14326;50.794;6.060;2023-07-13T09:25:02;11.60;;;2.72;;
26718;SDS011;14326;50.794;6.060;2023-07-13T09:31:04;12.50;;;2.13;;
26718;SDS011;14326;50.794;6.060;2023-07-13T09:33:43;13.75;;;2.58;;
26718;SDS011;14326;50.794;6.060;2023-07-13T09:36:29;12.98;;;2.40;;
26718;SDS011;14326;50.794;6.060;2023-07-13T09:39:02;11.65;;;2.70;;
26718;SDS011;14326;50.794;6.060;2023-07-13T09:42:07;14.77;;;2.63;;
26718;SDS011;14326;50.794;6.060;2023-07-13T09:45:11;12.25;;;2.60;;
26718;SDS011;14326;50.794;6.060;2023-07-13T09:48:07;14.07;;;2.40;;
26718;SDS011;14326;50.794;6.060;2023-07-13T09:50:47;12.55;;;2.20;;
26718;SDS011;14326;50.794;6.060;2023-07-13T09:53:29;13.85;;;2.80;;
26718;SDS011;14326;50.794;6.060;2023-07-13T09:56:21;9.13;;;2.20;;
26718;SDS011;14326;50.794;6.060;2023-07-13T10:02:01;12.77;;;2.65;;
26718;SDS011;14326;50.794;6.060;2023-07-13T10:07:50;12.57;;;1.70;;
26718;SDS011;14326;50.794;6.060;2023-07-13T10:10:33;10.13;;;2.40;;
26718;SDS011;14326;50.794;6.060;2023-07-13T10:19:55;11.88;;;2.45;;
26718;SDS011;14326;50.794;6.060;2023-07-13T10:22:44;15.90;;;2.50;;
26718;SDS011;14326;50.794;6.060;2023-07-13T10:25:21;11.80;;;2.35;;
26718;SDS011;14326;50.794;6.060;2023-07-13T10:34:19;13.02;;;2.20;;
26718;SDS011;14326;50.794;6.060;2023-07-13T10:43:06;11.75;;;2.03;;
26718;SDS011;14326;50.794;6.060;2023-07-13T10:45:58;10.10;;;1.90;;
26718;SDS011;14326;50.794;6.060;2023-07-13T10:48:37;9.02;;;2.00;;
26718;SDS011;14326;50.794;6.060;2023-07-13T10:54:41;18.20;;;2.20;;
26718;SDS011;14326;50.794;6.060;2023-07-13T10:57:24;11.13;;;2.13;;
26718;SDS011;14326;50.794;6.060;2023-07-13T11:00:15;10.73;;;2.10;;
26718;SDS011;14326;50.794;6.060;2023-07-13T11:02:43;12.13;;;1.70;;
26718;SDS011;14326;50.794;6.060;2023-07-13T11:05:25;12.60;;;2.30;;
26718;SDS011;14326;50.794;6.060;2023-07-13T11:07:55;11.80;;;1.98;;
26718;SDS011;14326;50.794;6.060;2023-07-13T11:10:47;10.55;;;2.00;;
26718;SDS011;14326;50.794;6.060;2023-07-13T11:16:37;9.93;;;2.00;;
26718;SDS011;14326;50.794;6.060;2023-07-13T11:19:24;11.57;;;1.95;;
26718;SDS011;14326;50.794;6.060;2023-07-13T11:22:16;10.88;;;2.20;;
26718;SDS011;14326;50.794;6.060;2023-07-13T11:24:49;13.95;;;2.75;;
26718;SDS011;14326;50.794;6.060;2023-07-13T11:27:39;13.82;;;2.33;;
26718;SDS011;14326;50.794;6.060;2023-07-13T11:30:22;11.73;;;2.35;;
26718;SDS011;14326;50.794;6.060;2023-07-13T11:33:13;14.90;;;2.70;;
26718;SDS011;14326;50.794;6.060;2023-07-13T11:35:43;13.10;;;2.22;;
26718;SDS011;14326;50.794;6.060;2023-07-13T11:38:14;11.23;;;1.75;;
26718;SDS011;14326;50.794;6.060;2023-07-13T11:40:44;9.65;;;2.25;;
26718;SDS011;14326;50.794;6.060;2023-07-13T11:43:14;8.02;;;1.95;;
26718;SDS011;14326;50.794;6.060;2023-07-13T11:45:41;13.25;;;2.53;;
26718;SDS011;14326;50.794;6.060;2023-07-13T11:48:22;10.77;;;2.20;;
26718;SDS011;14326;50.794;6.060;2023-07-13T11:53:49;10.25;;;1.80;;
26718;SDS011;14326;50.794;6.060;2023-07-13T11:56:29;11.98;;;2.47;;
26718;SDS011;14326;50.794;6.060;2023-07-13T12:01:56;9.55;;;2.08;;
26718;SDS011;14326;50.794;6.060;2023-07-13T12:04:26;10.25;;;1.95;;
26718;SDS011;14326;50.794;6.060;2023-07-13T12:06:56;11.13;;;2.15;;
26718;SDS011;14326;50.794;6.060;2023-07-13T12:09:26;11.65;;;2.17;;
26718;SDS011;14326;50.794;6.060;2023-07-13T12:11:54;8.98;;;2.20;;
26718;SDS011;14326;50.794;6.060;2023-07-13T12:14:23;8.60;;;1.73;;
26718;SDS011;14326;50.794;6.060;2023-07-13T12:16:52;10.90;;;1.92;;
26718;SDS011;14326;50.794;6.060;2023-07-13T12:19:20;8.73;;;2.05;;
26718;SDS011;14326;50.794;6.060;2023-07-13T12:21:48;5.72;;;1.45;;
26718;SDS011;14326;50.794;6.060;2023-07-13T12:24:20;7.05;;;1.70;;
26718;SDS011;14326;50.794;6.060;2023-07-13T12:26:51;6.53;;;1.38;;
26718;SDS011;14326;50.794;6.060;2023-07-13T12:29:20;7.78;;;2.00;;
26718;SDS011;14326;50.794;6.060;2023-07-13T12:31:48;6.38;;;1.60;;
26718;SDS011;14326;50.794;6.060;2023-07-13T12:34:19;9.48;;;1.58;;
26718;SDS011;14326;50.794;6.060;2023-07-13T12:36:48;8.23;;;1.80;;
26718;SDS011;14326;50.794;6.060;2023-07-13T12:39:18;7.47;;;1.50;;
26718;SDS011;14326;50.794;6.060;2023-07-13T12:41:48;12.95;;;1.77;;
26718;SDS011;14326;50.794;6.060;2023-07-13T12:44:17;7.65;;;1.65;;
26718;SDS011;14326;50.794;6.060;2023-07-13T12:46:55;11.60;;;1.60;;
26718;SDS011;14326;50.794;6.060;2023-07-13T12:49:26;9.77;;;1.85;;
26718;SDS011;14326;50.794;6.060;2023-07-13T12:51:58;9.82;;;1.73;;
26718;SDS011;14326;50.794;6.060;2023-07-13T12:54:27;12.30;;;2.22;;
26718;SDS011;14326;50.794;6.060;2023-07-13T12:56:54;10.95;;;2.00;;
26718;SDS011;14326;50.794;6.060;2023-07-13T12:59:23;10.07;;;2.22;;
26718;SDS011;14326;50.794;6.060;2023-07-13T13:01:55;8.15;;;1.95;;
26718;SDS011;14326;50.794;6.060;2023-07-13T13:04:22;11.43;;;1.80;;
26718;SDS011;14326;50.794;6.060;2023-07-13T13:06:59;10.23;;;1.55;;
26718;SDS011;14326;50.794;6.060;2023-07-13T13:09:34;6.97;;;1.63;;
26718;SDS011;14326;50.794;6.060;2023-07-13T13:12:01;7.55;;;1.40;;
26718;SDS011;14326;50.794;6.060;2023-07-13T13:14:27;10.20;;;2.17;;
26718;SDS011;14326;50.794;6.060;2023-07-13T13:16:54;5.50;;;1.63;;
26718;SDS011;14326;50.794;6.060;2023-07-13T13:19:23;10.48;;;1.58;;
26718;SDS011;14326;50.794;6.060;2023-07-13T13:21:57;7.35;;;1.98;;
26718;SDS011;14326;50.794;6.060;2023-07-13T13:24:25;7.07;;;1.58;;
26718;SDS011;14326;50.794;6.060;2023-07-13T13:29:23;7.00;;;1.75;;
26718;SDS011;14326;50.794;6.060;2023-07-13T13:31:53;6.13;;;1.63;;
26718;SDS011;14326;50.794;6.060;2023-07-13T13:34:21;8.63;;;1.70;;
26718;SDS011;14326;50.794;6.060;2023-07-13T13:36:49;7.10;;;1.55;;
26718;SDS011;14326;50.794;6.060;2023-07-13T13:39:20;13.85;;;2.35;;
26718;SDS011;14326;50.794;6.060;2023-07-13T13:41:48;9.75;;;1.55;;
26718;SDS011;14326;50.794;6.060;2023-07-13T13:44:15;7.60;;;1.60;;
26718;SDS011;14326;50.794;6.060;2023-07-13T13:46:44;17.27;;;2.65;;
26718;SDS011;14326;50.794;6.060;2023-07-13T13:49:12;10.38;;;1.90;;
26718;SDS011;14326;50.794;6.060;2023-07-13T13:51:45;7.13;;;1.30;;
26718;SDS011;14326;50.794;6.060;2023-07-13T13:54:12;7.50;;;1.50;;
26718;SDS011;14326;50.794;6.060;2023-07-13T13:56:42;10.77;;;1.70;;
26718;SDS011;14326;50.794;6.060;2023-07-13T13:59:10;7.45;;;1.92;;
26718;SDS011;14326;50.794;6.060;2023-07-13T14:01:37;7.35;;;1.52;;
26718;SDS011;14326;50.794;6.060;2023-07-13T14:04:05;7.85;;;1.58;;
26718;SDS011;14326;50.794;6.060;2023-07-13T14:06:33;5.90;;;1.58;;
26718;SDS011;14326;50.794;6.060;2023-07-13T14:09:00;10.10;;;2.03;;
26718;SDS011;14326;50.794;6.060;2023-07-13T14:11:28;10.48;;;1.88;;
26718;SDS011;14326;50.794;6.060;2023-07-13T14:13:59;9.95;;;2.25;;
26718;SDS011;14326;50.794;6.060;2023-07-13T14:16:29;8.07;;;1.77;;
26718;SDS011;14326;50.794;6.060;2023-07-13T14:18:57;9.07;;;1.67;;
26718;SDS011;14326;50.794;6.060;2023-07-13T14:21:26;10.23;;;1.73;;
26718;SDS011;14326;50.794;6.060;2023-07-13T14:23:54;9.25;;;1.60;;
26718;SDS011;14326;50.794;6.060;2023-07-13T14:26:23;9.25;;;1.45;;
26718;SDS011;14326;50.794;6.060;2023-07-13T14:31:43;6.97;;;1.08;;
26718;SDS011;14326;50.794;6.060;2023-07-13T14:34:11;12.68;;;2.58;;
26718;SDS011;14326;50.794;6.060;2023-07-13T14:36:40;5.40;;;1.40;;
26718;SDS011;14326;50.794;6.060;2023-07-13T14:39:11;6.57;;;1.08;;
26718;SDS011;14326;50.794;6.060;2023-07-13T14:41:51;5.13;;;1.30;;
26718;SDS011;14326;50.794;6.060;2023-07-13T14:44:30;6.85;;;1.50;;
26718;SDS011;14326;50.794;6.060;2023-07-13T14:46:58;14.55;;;2.03;;
26718;SDS011;14326;50.794;6.060;2023-07-13T14:49:31;6.65;;;1.70;;
26718;SDS011;14326;50.794;6.060;2023-07-13T14:52:11;7.05;;;1.55;;
26718;SDS011;14326;50.794;6.060;2023-07-13T14:55:11;10.52;;;1.75;;
26718;SDS011;14326;50.794;6.060;2023-07-13T14:58:05;8.82;;;1.98;;
26718;SDS011;14326;50.794;6.060;2023-07-13T15:00:44;8.68;;;1.70;;
26718;SDS011;14326;50.794;6.060;2023-07-13T15:03:44;5.85;;;1.65;;
26718;SDS011;14326;50.794;6.060;2023-07-13T15:06:50;8.38;;;1.77;;
26718;SDS011;14326;50.794;6.060;2023-07-13T15:09:30;12.50;;;1.60;;
26718;SDS011;14326;50.794;6.060;2023-07-13T15:12:09;6.73;;;1.60;;
26718;SDS011;14326;50.794;6.060;2023-07-13T15:17:31;9.07;;;1.80;;
26718;SDS011;14326;50.794;6.060;2023-07-13T15:23:30;7.32;;;1.45;;
26718;SDS011;14326;50.794;6.060;2023-07-13T15:26:02;9.20;;;1.90;;
26718;SDS011;14326;50.794;6.060;2023-07-13T15:29:01;12.02;;;1.80;;
26718;SDS011;14326;50.794;6.060;2023-07-13T15:31:45;7.57;;;2.10;;
26718;SDS011;14326;50.794;6.060;2023-07-13T15:34:30;10.20;;;2.10;;
26718;SDS011;14326;50.794;6.060;2023-07-13T15:37:13;11.20;;;2.10;;
26718;SDS011;14326;50.794;6.060;2023-07-13T15:42:52;9.50;;;1.80;;
26718;SDS011;14326;50.794;6.060;2023-07-13T15:45:32;8.25;;;1.88;;
26718;SDS011;14326;50.794;6.060;2023-07-13T15:48:17;9.48;;;1.98;;
26718;SDS011;14326;50.794;6.060;2023-07-13T15:53:59;12.77;;;2.38;;
26718;SDS011;14326;50.794;6.060;2023-07-13T15:56:35;10.00;;;2.20;;
26718;SDS011;14326;50.794;6.060;2023-07-13T15:59:24;7.45;;;1.92;;
26718;SDS011;14326;50.794;6.060;2023-07-13T16:02:08;10.40;;;2.30;;
26718;SDS011;14326;50.794;6.060;2023-07-13T16:04:56;8.65;;;2.10;;
26718;SDS011;14326;50.794;6.060;2023-07-13T16:07:36;8.05;;;2.08;;
26718;SDS011;14326;50.794;6.060;2023-07-13T16:10:40;11.13;;;2.10;;
26718;SDS011;14326;50.794;6.060;2023-07-13T16:13:23;13.90;;;2.78;;
26718;SDS011;14326;50.794;6.060;2023-07-13T16:15:58;7.15;;;1.83;;
26718;SDS011;14326;50.794;6.060;2023-07-13T16:18:41;3.83;;;1.35;;
26718;SDS011;14326;50.794;6.060;2023-07-13T16:21:18;9.25;;;1.70;;
26718;SDS011;14326;50.794;6.060;2023-07-13T16:27:15;7.22;;;1.55;;
26718;SDS011;14326;50.794;6.060;2023-07-13T16:33:24;9.50;;;2.92;;
26718;SDS011;14326;50.794;6.060;2023-07-13T16:39:18;9.85;;;2.00;;
26718;SDS011;14326;50.794;6.060;2023-07-13T16:41:50;6.85;;;1.95;;
26718;SDS011;14326;50.794;6.060;2023-07-13T16:44:18;11.23;;;2.30;;
26718;SDS011;14326;50.794;6.060;2023-07-13T16:46:48;10.18;;;2.20;;
26718;SDS011;14326;50.794;6.060;2023-07-13T16:51:56;11.52;;;2.15;;
26718;SDS011;14326;50.794;6.060;2023-07-13T16:54:44;10.57;;;2.25;;
26718;SDS011;14326;50.794;6.060;2023-07-13T16:57:20;9.25;;;1.85;;
26718;SDS011;14326;50.794;6.060;2023-07-13T17:00:18;10.43;;;2.47;;
26718;SDS011;14326;50.794;6.060;2023-07-13T17:02:54;9.55;;;2.03;;
26718;SDS011;14326;50.794;6.060;2023-07-13T17:05:32;11.35;;;2.13;;
26718;SDS011;14326;50.794;6.060;2023-07-13T17:08:17;8.45;;;1.83;;
26718;SDS011;14326;50.794;6.060;2023-07-13T17:14:13;7.95;;;2.10;;
26718;SDS011;14326;50.794;6.060;2023-07-13T17:16:43;8.73;;;1.73;;
26718;SDS011;14326;50.794;6.060;2023-07-13T17:19:59;8.43;;;2.10;;
26718;SDS011;14326;50.794;6.060;2023-07-13T17:26:10;10.77;;;2.15;;
26718;SDS011;14326;50.794;6.060;2023-07-13T17:28:54;10.18;;;3.05;;
26718;SDS011;14326;50.794;6.060;2023-07-13T17:31:36;10.45;;;2.28;;
26718;SDS011;14326;50.794;6.060;2023-07-13T17:34:10;9.60;;;2.10;;
26718;SDS011;14326;50.794;6.060;2023-07-13T17:37:00;7.35;;;2.10;;
26718;SDS011;14326;50.794;6.060;2023-07-13T17:40:26;11.48;;;2.28;;
26718;SDS011;14326;50.794;6.060;2023-07-13T17:46:04;10.73;;;2.33;;
26718;SDS011;14326;50.794;6.060;2023-07-13T17:51:55;8.60;;;1.98;;
26718;SDS011;14326;50.794;6.060;2023-07-13T17:54:53;9.68;;;2.00;;
26718;SDS011;14326;50.794;6.060;2023-07-13T17:57:43;14.23;;;2.30;;
26718;SDS011;14326;50.794;6.060;2023-07-13T18:00:21;8.75;;;2.00;;
26718;SDS011;14326;50.794;6.060;2023-07-13T18:03:05;10.05;;;2.25;;
26718;SDS011;14326;50.794;6.060;2023-07-13T18:05:53;10.50;;;2.05;;
26718;SDS011;14326;50.794;6.060;2023-07-13T18:08:25;11.43;;;2.75;;
26718;SDS011;14326;50.794;6.060;2023-07-13T18:11:14;8.73;;;2.75;;
26718;SDS011;14326;50.794;6.060;2023-07-13T18:13:47;7.22;;;1.88;;
26718;SDS011;14326;50.794;6.060;2023-07-13T18:16:26;8.55;;;2.10;;
26718;SDS011;14326;50.794;6.060;2023-07-13T18:22:01;11.23;;;2.13;;
26718;SDS011;14326;50.794;6.060;2023-07-13T18:24:49;8.57;;;2.10;;
26718;SDS011;14326;50.794;6.060;2023-07-13T18:27:41;11.70;;;2.00;;
26718;SDS011;14326;50.794;6.060;2023-07-13T18:30:32;8.30;;;2.15;;
26718;SDS011;14326;50.794;6.060;2023-07-13T18:33:25;9.27;;;2.00;;
26718;SDS011;14326;50.794;6.060;2023-07-13T18:36:00;6.10;;;1.75;;